Kahului, HI

12:39 PM HST on May 04, 2015 (GMT -1000)
Kehalani | | Change Station
CLOSE
Current Station
Personal Weather Station
Location: Wailuku, HI
Elevation: 358 ft
Nearby Weather Stations

Elev 358 ft 20.87 °N, 156.50 °W | Updated 11 minutes ago

Mostly Cloudy
Mostly Cloudy
78.4 °F
Feels Like 80 °F
N
9.9
Wind Variable Wind from WNW

Today
High -- | Low -- °F
--% Chance of Precip.
Yesterday
High -- | Low -- °F
Precip. -- in
5:53 AM 6:51 PM
Full, 99% visible
Pressure 30.06 in
Visibility 10.0 miles
Clouds Scattered Clouds 5000 ft
Mostly Cloudy 7000 ft
Heat Index 80 °F
Dew Point 64 °F
Humidity 61%
Rainfall 0.00 in
Snow Depth Not available.
UV 7 out of 12
Pollen Not available.
Air Quality Not available.
Flu Activity Regional
METAR PHOG 042154Z 09015G23KT 10SM SCT050 BKN070 28/18 A3005 RMK AO2 PK WND 08029/2142 SLP180 T02780183

More Conditions Fewer Conditions

Pressure 30.06 in
Visibility 10.0 miles
Clouds Scattered Clouds 5000 ft
Mostly Cloudy 7000 ft
Heat Index 80 °F
Dew Point 64 °F
Humidity 61%
Rainfall 0.00 in
Snow Depth Not available.
UV 7 out of 12
Pollen Not available.
Air Quality Not available.
Flu Activity Regional
METAR PHOG 042154Z 09015G23KT 10SM SCT050 BKN070 28/18 A3005 RMK AO2 PK WND 08029/2142 SLP180 T02780183

More Conditions Fewer Conditions

10-Day Weather Forecast

Almanac

Astronomy

May. 04, 2015 Rise Set
Actual Time
Civil Twilight
Nautical Twilight
Astronomical Twilight
Moon
Length of Visible Light
Length of Day
Tomorrow will be .
, % of the Moon is Illuminated

Today's Extremes

State Highs State Lows

Community

WunderPhotos

Upload Photos

1,818,717 photos uploaded!

WunderBlogs® & News

Nearby

Air Quality

  Air Quality AQ Index Pollutant
Not available.

Snow Depth

Station Depth Elevation

Earthquake Activity

City Distance Mag. Time & Date
Minimum magnitude displayed is 2.5.

Coastal Water Temperatures

Place Temperature

Stations

Nearby Weather Stations

Station Location Temp. Windchill Dew Point Humidity Wind Precip. Elev Updated Type